sensor_id;sensor_type;location;lat;lon;timestamp;temperature;humidity
254;DHT22;590;48.772;8.846;2022-10-18T00:00:55;13.60;99.90
254;DHT22;590;48.772;8.846;2022-10-18T00:03:23;13.60;99.90
254;DHT22;590;48.772;8.846;2022-10-18T00:05:51;13.60;99.90
254;DHT22;590;48.772;8.846;2022-10-18T00:08:19;13.60;99.90
254;DHT22;590;48.772;8.846;2022-10-18T00:10:48;13.60;99.90
254;DHT22;590;48.772;8.846;2022-10-18T00:13:17;13.60;99.90
254;DHT22;590;48.772;8.846;2022-10-18T00:15:49;13.60;99.90
254;DHT22;590;48.772;8.846;2022-10-18T00:18:18;13.60;99.90
254;DHT22;590;48.772;8.846;2022-10-18T00:20:56;13.50;99.90
254;DHT22;590;48.772;8.846;2022-10-18T00:23:25;13.50;99.90
254;DHT22;590;48.772;8.846;2022-10-18T00:26:01;13.40;99.90
254;DHT22;590;48.772;8.846;2022-10-18T00:28:32;13.40;99.90
254;DHT22;590;48.772;8.846;2022-10-18T00:31:09;13.40;99.90
254;DHT22;590;48.772;8.846;2022-10-18T00:33:38;13.40;99.90
254;DHT22;590;48.772;8.846;2022-10-18T00:36:06;13.40;99.90
254;DHT22;590;48.772;8.846;2022-10-18T00:38:34;13.40;99.90
254;DHT22;590;48.772;8.846;2022-10-18T00:41:04;13.40;99.90
254;DHT22;590;48.772;8.846;2022-10-18T00:43:52;13.40;99.90
254;DHT22;590;48.772;8.846;2022-10-18T00:46:20;13.40;99.90
254;DHT22;590;48.772;8.846;2022-10-18T00:48:48;13.40;99.90
254;DHT22;590;48.772;8.846;2022-10-18T00:51:19;13.40;99.90
254;DHT22;590;48.772;8.846;2022-10-18T00:53:47;13.40;99.90
254;DHT22;590;48.772;8.846;2022-10-18T00:56:16;13.40;99.90
254;DHT22;590;48.772;8.846;2022-10-18T00:58:45;13.40;99.90
254;DHT22;590;48.772;8.846;2022-10-18T01:01:15;13.50;99.90
254;DHT22;590;48.772;8.846;2022-10-18T01:03:44;13.50;99.90
254;DHT22;590;48.772;8.846;2022-10-18T01:06:12;13.60;99.90
254;DHT22;590;48.772;8.846;2022-10-18T01:08:49;13.60;99.90
254;DHT22;590;48.772;8.846;2022-10-18T01:11:36;13.70;99.90
254;DHT22;590;48.772;8.846;2022-10-18T01:14:18;13.70;99.90
254;DHT22;590;48.772;8.846;2022-10-18T01:16:57;13.70;99.90
254;DHT22;590;48.772;8.846;2022-10-18T01:19:48;13.80;99.90
254;DHT22;590;48.772;8.846;2022-10-18T01:22:23;13.80;99.90
254;DHT22;590;48.772;8.846;2022-10-18T01:25:06;13.80;99.90
254;DHT22;590;48.772;8.846;2022-10-18T01:27:45;13.80;99.90
254;DHT22;590;48.772;8.846;2022-10-18T01:30:35;13.80;99.90
254;DHT22;590;48.772;8.846;2022-10-18T01:33:11;13.90;99.90
254;DHT22;590;48.772;8.846;2022-10-18T01:35:44;13.90;99.90
254;DHT22;590;48.772;8.846;2022-10-18T01:38:15;13.90;99.90
254;DHT22;590;48.772;8.846;2022-10-18T01:40:46;13.90;99.90
254;DHT22;590;48.772;8.846;2022-10-18T01:43:17;13.90;99.90
254;DHT22;590;48.772;8.846;2022-10-18T01:45:48;13.90;99.90
254;DHT22;590;48.772;8.846;2022-10-18T01:48:16;13.80;99.90
254;DHT22;590;48.772;8.846;2022-10-18T01:50:45;13.90;99.90
254;DHT22;590;48.772;8.846;2022-10-18T01:53:27;13.80;99.90
254;DHT22;590;48.772;8.846;2022-10-18T01:56:15;13.80;99.90
254;DHT22;590;48.772;8.846;2022-10-18T01:58:51;13.90;99.90
254;DHT22;590;48.772;8.846;2022-10-18T02:01:30;13.90;99.90
254;DHT22;590;48.772;8.846;2022-10-18T02:04:06;13.90;99.90
254;DHT22;590;48.772;8.846;2022-10-18T02:06:42;13.90;99.90
254;DHT22;590;48.772;8.846;2022-10-18T02:09:14;13.90;99.90
254;DHT22;590;48.772;8.846;2022-10-18T02:11:45;14.00;99.90
254;DHT22;590;48.772;8.846;2022-10-18T02:14:16;14.00;99.90
254;DHT22;590;48.772;8.846;2022-10-18T02:16:50;14.00;99.90
254;DHT22;590;48.772;8.846;2022-10-18T02:19:24;14.00;99.90
254;DHT22;590;48.772;8.846;2022-10-18T02:21:53;14.00;99.90
254;DHT22;590;48.772;8.846;2022-10-18T02:24:24;14.10;99.90
254;DHT22;590;48.772;8.846;2022-10-18T02:26:54;14.10;99.90
254;DHT22;590;48.772;8.846;2022-10-18T02:29:22;14.10;99.90
254;DHT22;590;48.772;8.846;2022-10-18T02:31:54;14.10;99.90
254;DHT22;590;48.772;8.846;2022-10-18T02:34:29;14.20;99.90
254;DHT22;590;48.772;8.846;2022-10-18T02:37:00;14.20;99.90
254;DHT22;590;48.772;8.846;2022-10-18T02:39:30;14.20;99.90
254;DHT22;590;48.772;8.846;2022-10-18T02:41:59;14.20;99.90
254;DHT22;590;48.772;8.846;2022-10-18T02:44:27;14.20;99.90
254;DHT22;590;48.772;8.846;2022-10-18T02:46:57;14.20;99.90
254;DHT22;590;48.772;8.846;2022-10-18T02:49:25;14.20;99.90
254;DHT22;590;48.772;8.846;2022-10-18T02:51:53;14.20;99.90
254;DHT22;590;48.772;8.846;2022-10-18T02:54:21;14.20;99.90
254;DHT22;590;48.772;8.846;2022-10-18T02:56:49;14.20;99.90
254;DHT22;590;48.772;8.846;2022-10-18T02:59:17;14.30;99.90
254;DHT22;590;48.772;8.846;2022-10-18T03:01:45;14.20;99.90
254;DHT22;590;48.772;8.846;2022-10-18T03:04:14;14.20;99.90
254;DHT22;590;48.772;8.846;2022-10-18T03:06:43;14.20;99.90
254;DHT22;590;48.772;8.846;2022-10-18T03:09:11;14.20;99.90
254;DHT22;590;48.772;8.846;2022-10-18T03:11:39;14.20;99.90
254;DHT22;590;48.772;8.846;2022-10-18T03:14:06;14.20;99.90
254;DHT22;590;48.772;8.846;2022-10-18T03:16:34;14.20;99.90
254;DHT22;590;48.772;8.846;2022-10-18T03:19:02;14.30;99.90
254;DHT22;590;48.772;8.846;2022-10-18T03:21:32;14.30;99.90
254;DHT22;590;48.772;8.846;2022-10-18T03:24:01;14.20;99.90
254;DHT22;590;48.772;8.846;2022-10-18T03:26:29;14.30;99.90
254;DHT22;590;48.772;8.846;2022-10-18T03:28:57;14.30;99.90
254;DHT22;590;48.772;8.846;2022-10-18T03:31:25;14.20;99.90
254;DHT22;590;48.772;8.846;2022-10-18T03:33:53;14.20;99.90
254;DHT22;590;48.772;8.846;2022-10-18T03:36:21;14.20;99.90
254;DHT22;590;48.772;8.846;2022-10-18T03:38:50;14.20;99.90
254;DHT22;590;48.772;8.846;2022-10-18T03:41:18;14.20;99.90
254;DHT22;590;48.772;8.846;2022-10-18T03:43:46;14.20;99.90
254;DHT22;590;48.772;8.846;2022-10-18T03:46:14;14.20;99.90
254;DHT22;590;48.772;8.846;2022-10-18T03:48:42;14.20;99.90
254;DHT22;590;48.772;8.846;2022-10-18T03:51:11;14.20;99.90
254;DHT22;590;48.772;8.846;2022-10-18T03:53:39;14.20;99.90
254;DHT22;590;48.772;8.846;2022-10-18T03:56:08;14.10;99.90
254;DHT22;590;48.772;8.846;2022-10-18T03:58:36;14.10;99.90
254;DHT22;590;48.772;8.846;2022-10-18T04:01:04;14.10;99.90
254;DHT22;590;48.772;8.846;2022-10-18T04:03:32;14.10;99.90
254;DHT22;590;48.772;8.846;2022-10-18T04:06:00;14.10;99.90
254;DHT22;590;48.772;8.846;2022-10-18T04:08:29;14.10;99.90
254;DHT22;590;48.772;8.846;2022-10-18T04:10:57;14.10;99.90
254;DHT22;590;48.772;8.846;2022-10-18T04:13:26;14.10;99.90
254;DHT22;590;48.772;8.846;2022-10-18T04:15:54;14.10;99.90
254;DHT22;590;48.772;8.846;2022-10-18T04:18:22;14.20;99.90
254;DHT22;590;48.772;8.846;2022-10-18T04:20:50;14.20;99.90
254;DHT22;590;48.772;8.846;2022-10-18T04:23:18;14.30;99.90
254;DHT22;590;48.772;8.846;2022-10-18T04:25:46;14.30;99.90
254;DHT22;590;48.772;8.846;2022-10-18T04:28:20;14.30;99.90
254;DHT22;590;48.772;8.846;2022-10-18T04:30:50;14.30;99.90
254;DHT22;590;48.772;8.846;2022-10-18T04:33:19;14.20;99.90
254;DHT22;590;48.772;8.846;2022-10-18T04:35:50;14.30;99.90
254;DHT22;590;48.772;8.846;2022-10-18T04:38:19;14.30;99.90
254;DHT22;590;48.772;8.846;2022-10-18T04:40:47;14.30;99.90
254;DHT22;590;48.772;8.846;2022-10-18T04:43:15;14.30;99.90
254;DHT22;590;48.772;8.846;2022-10-18T04:45:44;14.30;99.90
254;DHT22;590;48.772;8.846;2022-10-18T04:48:13;14.30;99.90
254;DHT22;590;48.772;8.846;2022-10-18T04:50:41;14.30;99.90
254;DHT22;590;48.772;8.846;2022-10-18T04:53:09;14.30;99.90
254;DHT22;590;48.772;8.846;2022-10-18T04:55:37;14.30;99.90
254;DHT22;590;48.772;8.846;2022-10-18T04:58:05;14.30;99.90
254;DHT22;590;48.772;8.846;2022-10-18T05:00:33;14.20;99.90
254;DHT22;590;48.772;8.846;2022-10-18T05:03:06;14.20;99.90
254;DHT22;590;48.772;8.846;2022-10-18T05:05:35;14.20;99.90
254;DHT22;590;48.772;8.846;2022-10-18T05:08:23;14.20;99.90
254;DHT22;590;48.772;8.846;2022-10-18T05:10:51;14.30;99.90
254;DHT22;590;48.772;8.846;2022-10-18T05:13:19;14.20;99.90
254;DHT22;590;48.772;8.846;2022-10-18T05:15:47;14.30;99.90
254;DHT22;590;48.772;8.846;2022-10-18T05:18:15;14.30;99.90
254;DHT22;590;48.772;8.846;2022-10-18T05:20:45;14.30;99.90
254;DHT22;590;48.772;8.846;2022-10-18T05:23:13;14.30;99.90
254;DHT22;590;48.772;8.846;2022-10-18T05:25:42;14.30;99.90
254;DHT22;590;48.772;8.846;2022-10-18T05:28:10;14.20;99.90
254;DHT22;590;48.772;8.846;2022-10-18T05:30:59;14.10;99.90
254;DHT22;590;48.772;8.846;2022-10-18T05:33:28;14.00;99.90
254;DHT22;590;48.772;8.846;2022-10-18T05:35:58;13.90;99.90
254;DHT22;590;48.772;8.846;2022-10-18T05:38:26;13.90;99.90
254;DHT22;590;48.772;8.846;2022-10-18T05:40:57;13.80;99.90
254;DHT22;590;48.772;8.846;2022-10-18T05:43:26;13.80;99.90
254;DHT22;590;48.772;8.846;2022-10-18T05:45:55;13.70;99.90
254;DHT22;590;48.772;8.846;2022-10-18T05:48:23;13.70;99.90
254;DHT22;590;48.772;8.846;2022-10-18T05:50:52;13.70;99.90
254;DHT22;590;48.772;8.846;2022-10-18T05:53:21;13.70;99.90
254;DHT22;590;48.772;8.846;2022-10-18T05:56:05;13.80;99.90
254;DHT22;590;48.772;8.846;2022-10-18T05:58:34;13.80;99.90
254;DHT22;590;48.772;8.846;2022-10-18T06:01:03;13.80;99.90
254;DHT22;590;48.772;8.846;2022-10-18T06:03:32;13.80;99.90
254;DHT22;590;48.772;8.846;2022-10-18T06:06:01;13.80;99.90
254;DHT22;590;48.772;8.846;2022-10-18T06:08:31;13.80;99.90
254;DHT22;590;48.772;8.846;2022-10-18T06:11:04;13.90;99.90
254;DHT22;590;48.772;8.846;2022-10-18T06:13:32;13.90;99.90
254;DHT22;590;48.772;8.846;2022-10-18T06:16:00;13.90;99.90
254;DHT22;590;48.772;8.846;2022-10-18T06:18:28;14.00;99.90
254;DHT22;590;48.772;8.846;2022-10-18T06:20:56;14.00;99.90
254;DHT22;590;48.772;8.846;2022-10-18T06:23:25;14.10;99.90
254;DHT22;590;48.772;8.846;2022-10-18T06:25:57;14.10;99.90
254;DHT22;590;48.772;8.846;2022-10-18T06:28:26;14.20;99.90
254;DHT22;590;48.772;8.846;2022-10-18T06:30:54;14.30;99.90
254;DHT22;590;48.772;8.846;2022-10-18T06:33:22;14.30;99.90
254;DHT22;590;48.772;8.846;2022-10-18T06:35:55;14.40;99.90
254;DHT22;590;48.772;8.846;2022-10-18T06:38:23;14.40;99.90
254;DHT22;590;48.772;8.846;2022-10-18T06:40:53;14.50;99.90
254;DHT22;590;48.772;8.846;2022-10-18T06:43:22;14.50;99.90
254;DHT22;590;48.772;8.846;2022-10-18T06:45:51;14.50;99.90
254;DHT22;590;48.772;8.846;2022-10-18T06:48:19;14.50;99.90
254;DHT22;590;48.772;8.846;2022-10-18T06:50:52;14.60;99.90
254;DHT22;590;48.772;8.846;2022-10-18T06:53:21;14.60;99.90
254;DHT22;590;48.772;8.846;2022-10-18T06:55:49;14.70;99.90
254;DHT22;590;48.772;8.846;2022-10-18T06:58:18;14.70;99.90
254;DHT22;590;48.772;8.846;2022-10-18T07:00:46;14.80;99.90
254;DHT22;590;48.772;8.846;2022-10-18T07:03:14;14.80;99.90
254;DHT22;590;48.772;8.846;2022-10-18T07:05:42;14.80;99.90
254;DHT22;590;48.772;8.846;2022-10-18T07:08:10;14.80;99.90
254;DHT22;590;48.772;8.846;2022-10-18T07:10:38;14.80;99.90
254;DHT22;590;48.772;8.846;2022-10-18T07:13:06;14.90;99.90
254;DHT22;590;48.772;8.846;2022-10-18T07:16:03;14.90;99.90
254;DHT22;590;48.772;8.846;2022-10-18T07:18:33;14.90;99.90
254;DHT22;590;48.772;8.846;2022-10-18T07:21:02;15.00;99.90
254;DHT22;590;48.772;8.846;2022-10-18T07:23:31;15.00;99.90
254;DHT22;590;48.772;8.846;2022-10-18T07:26:00;15.10;99.90
254;DHT22;590;48.772;8.846;2022-10-18T07:28:29;15.20;99.90
254;DHT22;590;48.772;8.846;2022-10-18T07:30:57;15.40;99.90
254;DHT22;590;48.772;8.846;2022-10-18T07:33:33;15.40;99.90
254;DHT22;590;48.772;8.846;2022-10-18T07:36:02;15.50;99.90
254;DHT22;590;48.772;8.846;2022-10-18T07:38:30;15.60;99.90
254;DHT22;590;48.772;8.846;2022-10-18T07:41:00;15.70;99.90
254;DHT22;590;48.772;8.846;2022-10-18T07:43:29;15.80;99.90
254;DHT22;590;48.772;8.846;2022-10-18T07:45:58;15.90;99.90
254;DHT22;590;48.772;8.846;2022-10-18T07:48:27;16.10;99.90
254;DHT22;590;48.772;8.846;2022-10-18T07:50:58;16.20;99.90
254;DHT22;590;48.772;8.846;2022-10-18T07:53:27;16.20;99.90
254;DHT22;590;48.772;8.846;2022-10-18T07:55:57;16.30;99.90
254;DHT22;590;48.772;8.846;2022-10-18T07:58:28;16.40;99.90
254;DHT22;590;48.772;8.846;2022-10-18T08:01:00;16.40;99.90
254;DHT22;590;48.772;8.846;2022-10-18T08:03:28;16.50;99.90
254;DHT22;590;48.772;8.846;2022-10-18T08:05:57;16.50;99.90
254;DHT22;590;48.772;8.846;2022-10-18T08:08:26;16.60;99.90
254;DHT22;590;48.772;8.846;2022-10-18T08:10:55;16.60;99.90
254;DHT22;590;48.772;8.846;2022-10-18T08:13:28;16.80;99.90
254;DHT22;590;48.772;8.846;2022-10-18T08:15:59;16.90;99.90
254;DHT22;590;48.772;8.846;2022-10-18T08:18:27;17.00;99.90
254;DHT22;590;48.772;8.846;2022-10-18T08:20:56;17.10;99.90
254;DHT22;590;48.772;8.846;2022-10-18T08:23:27;17.20;99.90
254;DHT22;590;48.772;8.846;2022-10-18T08:25:55;17.40;99.90
254;DHT22;590;48.772;8.846;2022-10-18T08:28:23;17.50;99.90
254;DHT22;590;48.772;8.846;2022-10-18T08:30:51;17.70;99.90
254;DHT22;590;48.772;8.846;2022-10-18T08:33:19;17.90;99.90
254;DHT22;590;48.772;8.846;2022-10-18T08:35:53;18.00;99.90
254;DHT22;590;48.772;8.846;2022-10-18T08:38:22;18.30;99.90
254;DHT22;590;48.772;8.846;2022-10-18T08:40:51;18.50;99.90
254;DHT22;590;48.772;8.846;2022-10-18T08:43:25;18.80;99.90
254;DHT22;590;48.772;8.846;2022-10-18T08:45:56;19.20;99.90
254;DHT22;590;48.772;8.846;2022-10-18T08:48:31;19.50;99.90
254;DHT22;590;48.772;8.846;2022-10-18T08:51:00;19.60;99.70
254;DHT22;590;48.772;8.846;2022-10-18T08:53:34;19.70;95.90
254;DHT22;590;48.772;8.846;2022-10-18T08:56:10;19.80;95.50
254;DHT22;590;48.772;8.846;2022-10-18T08:58:42;19.90;95.90
254;DHT22;590;48.772;8.846;2022-10-18T09:01:22;19.90;95.60
254;DHT22;590;48.772;8.846;2022-10-18T09:04:19;19.90;95.30
254;DHT22;590;48.772;8.846;2022-10-18T09:06:54;19.90;94.10
254;DHT22;590;48.772;8.846;2022-10-18T09:09:31;19.90;93.40
254;DHT22;590;48.772;8.846;2022-10-18T09:12:13;19.80;92.80
254;DHT22;590;48.772;8.846;2022-10-18T09:15:06;19.70;93.10
254;DHT22;590;48.772;8.846;2022-10-18T09:17:46;19.70;93.30
254;DHT22;590;48.772;8.846;2022-10-18T09:20:22;19.70;93.40
254;DHT22;590;48.772;8.846;2022-10-18T09:22:53;19.80;93.30
254;DHT22;590;48.772;8.846;2022-10-18T09:25:23;19.90;93.00
254;DHT22;590;48.772;8.846;2022-10-18T09:27:55;20.00;92.70
254;DHT22;590;48.772;8.846;2022-10-18T09:30:32;20.10;92.10
254;DHT22;590;48.772;8.846;2022-10-18T09:33:13;20.20;91.40
254;DHT22;590;48.772;8.846;2022-10-18T09:35:47;20.30;91.00
254;DHT22;590;48.772;8.846;2022-10-18T09:38:20;20.40;90.00
254;DHT22;590;48.772;8.846;2022-10-18T09:40:56;20.50;88.70
254;DHT22;590;48.772;8.846;2022-10-18T09:43:38;20.50;88.70
254;DHT22;590;48.772;8.846;2022-10-18T09:46:07;20.50;88.70
254;DHT22;590;48.772;8.846;2022-10-18T09:48:42;20.60;90.10
254;DHT22;590;48.772;8.846;2022-10-18T09:51:14;20.70;89.70
254;DHT22;590;48.772;8.846;2022-10-18T09:56:46;20.80;86.00
254;DHT22;590;48.772;8.846;2022-10-18T09:59:29;20.80;82.70
254;DHT22;590;48.772;8.846;2022-10-18T10:01:58;20.90;83.30
254;DHT22;590;48.772;8.846;2022-10-18T10:04:26;21.00;82.10
254;DHT22;590;48.772;8.846;2022-10-18T10:06:55;21.00;79.00
254;DHT22;590;48.772;8.846;2022-10-18T10:09:27;21.10;78.00
254;DHT22;590;48.772;8.846;2022-10-18T10:11:56;21.20;77.80
254;DHT22;590;48.772;8.846;2022-10-18T10:14:27;21.30;78.10
254;DHT22;590;48.772;8.846;2022-10-18T10:16:58;21.40;77.90
254;DHT22;590;48.772;8.846;2022-10-18T10:19:30;21.60;77.50
254;DHT22;590;48.772;8.846;2022-10-18T10:22:02;21.70;76.20
254;DHT22;590;48.772;8.846;2022-10-18T10:24:43;21.90;73.80
254;DHT22;590;48.772;8.846;2022-10-18T10:27:17;22.10;71.90
254;DHT22;590;48.772;8.846;2022-10-18T10:29:54;22.30;71.00
254;DHT22;590;48.772;8.846;2022-10-18T10:32:29;22.50;71.00
254;DHT22;590;48.772;8.846;2022-10-18T10:34:58;22.80;68.20
254;DHT22;590;48.772;8.846;2022-10-18T10:37:29;22.90;64.20
254;DHT22;590;48.772;8.846;2022-10-18T10:40:15;23.00;62.90
254;DHT22;590;48.772;8.846;2022-10-18T10:42:58;23.10;61.80
254;DHT22;590;48.772;8.846;2022-10-18T10:46:02;23.10;60.70
254;DHT22;590;48.772;8.846;2022-10-18T10:48:32;23.20;57.30
254;DHT22;590;48.772;8.846;2022-10-18T10:51:03;23.30;56.70
254;DHT22;590;48.772;8.846;2022-10-18T10:53:47;23.40;57.10
254;DHT22;590;48.772;8.846;2022-10-18T10:56:22;23.40;56.60
254;DHT22;590;48.772;8.846;2022-10-18T10:58:51;23.40;54.80
254;DHT22;590;48.772;8.846;2022-10-18T11:01:28;23.30;51.70
254;DHT22;590;48.772;8.846;2022-10-18T11:03:59;23.20;53.40
254;DHT22;590;48.772;8.846;2022-10-18T11:06:41;23.10;54.70
254;DHT22;590;48.772;8.846;2022-10-18T11:09:31;23.00;57.00
254;DHT22;590;48.772;8.846;2022-10-18T11:12:09;23.00;56.20
254;DHT22;590;48.772;8.846;2022-10-18T11:14:41;23.00;55.60
254;DHT22;590;48.772;8.846;2022-10-18T11:17:19;23.00;53.70
254;DHT22;590;48.772;8.846;2022-10-18T11:20:00;23.00;53.90
254;DHT22;590;48.772;8.846;2022-10-18T11:22:32;23.10;52.60
254;DHT22;590;48.772;8.846;2022-10-18T11:25:02;23.10;50.60
254;DHT22;590;48.772;8.846;2022-10-18T11:27:33;23.00;52.10
254;DHT22;590;48.772;8.846;2022-10-18T11:30:18;23.10;53.80
254;DHT22;590;48.772;8.846;2022-10-18T11:32:55;23.10;52.20
254;DHT22;590;48.772;8.846;2022-10-18T11:35:34;23.00;52.80
254;DHT22;590;48.772;8.846;2022-10-18T11:38:14;23.00;54.00
254;DHT22;590;48.772;8.846;2022-10-18T11:41:02;23.10;54.10
254;DHT22;590;48.772;8.846;2022-10-18T11:43:36;23.10;52.00
254;DHT22;590;48.772;8.846;2022-10-18T11:46:39;23.10;52.00
254;DHT22;590;48.772;8.846;2022-10-18T11:52:06;23.10;51.10
254;DHT22;590;48.772;8.846;2022-10-18T11:54:44;23.10;52.70
254;DHT22;590;48.772;8.846;2022-10-18T11:57:28;23.10;51.70
254;DHT22;590;48.772;8.846;2022-10-18T12:00:04;23.20;50.60
254;DHT22;590;48.772;8.846;2022-10-18T12:02:58;23.20;50.50
254;DHT22;590;48.772;8.846;2022-10-18T12:05:30;23.10;50.40
254;DHT22;590;48.772;8.846;2022-10-18T12:08:02;23.10;50.70
254;DHT22;590;48.772;8.846;2022-10-18T12:10:32;23.10;49.90
254;DHT22;590;48.772;8.846;2022-10-18T12:13:26;23.10;50.70
254;DHT22;590;48.772;8.846;2022-10-18T12:15:56;23.20;52.20
254;DHT22;590;48.772;8.846;2022-10-18T12:18:25;23.20;50.10
254;DHT22;590;48.772;8.846;2022-10-18T12:20:57;23.20;51.20
254;DHT22;590;48.772;8.846;2022-10-18T12:23:33;23.10;50.90
254;DHT22;590;48.772;8.846;2022-10-18T12:26:05;23.10;50.30
254;DHT22;590;48.772;8.846;2022-10-18T12:28:41;23.10;52.00
254;DHT22;590;48.772;8.846;2022-10-18T12:31:17;23.10;53.00
254;DHT22;590;48.772;8.846;2022-10-18T12:33:49;23.00;55.50
254;DHT22;590;48.772;8.846;2022-10-18T12:36:35;22.90;56.20
254;DHT22;590;48.772;8.846;2022-10-18T12:39:09;22.70;56.50
254;DHT22;590;48.772;8.846;2022-10-18T12:41:39;22.60;57.40
254;DHT22;590;48.772;8.846;2022-10-18T12:44:18;22.50;59.70
254;DHT22;590;48.772;8.846;2022-10-18T12:46:49;22.40;60.50
254;DHT22;590;48.772;8.846;2022-10-18T12:49:20;22.40;60.30
254;DHT22;590;48.772;8.846;2022-10-18T12:51:53;22.40;60.90
254;DHT22;590;48.772;8.846;2022-10-18T12:54:26;22.40;60.10
254;DHT22;590;48.772;8.846;2022-10-18T12:56:55;22.40;58.90
254;DHT22;590;48.772;8.846;2022-10-18T12:59:50;22.40;57.80
254;DHT22;590;48.772;8.846;2022-10-18T13:02:25;22.30;58.90
254;DHT22;590;48.772;8.846;2022-10-18T13:04:54;22.10;59.50
254;DHT22;590;48.772;8.846;2022-10-18T13:07:39;21.90;60.30
254;DHT22;590;48.772;8.846;2022-10-18T13:10:40;21.80;60.70
254;DHT22;590;48.772;8.846;2022-10-18T13:13:37;21.70;61.40
254;DHT22;590;48.772;8.846;2022-10-18T13:16:26;21.70;62.10
254;DHT22;590;48.772;8.846;2022-10-18T13:18:59;21.70;62.60
254;DHT22;590;48.772;8.846;2022-10-18T13:21:38;21.70;62.60
254;DHT22;590;48.772;8.846;2022-10-18T13:24:24;21.70;62.50
254;DHT22;590;48.772;8.846;2022-10-18T13:27:09;21.70;62.70
254;DHT22;590;48.772;8.846;2022-10-18T13:30:17;21.70;62.30
254;DHT22;590;48.772;8.846;2022-10-18T13:32:52;21.80;63.10
254;DHT22;590;48.772;8.846;2022-10-18T13:35:43;21.80;63.80
254;DHT22;590;48.772;8.846;2022-10-18T13:38:45;21.80;64.30
254;DHT22;590;48.772;8.846;2022-10-18T13:41:17;21.80;63.10
254;DHT22;590;48.772;8.846;2022-10-18T13:44:21;21.70;63.70
254;DHT22;590;48.772;8.846;2022-10-18T13:47:09;21.50;64.20
254;DHT22;590;48.772;8.846;2022-10-18T13:53:05;21.30;66.40
254;DHT22;590;48.772;8.846;2022-10-18T13:55:45;21.20;68.40
254;DHT22;590;48.772;8.846;2022-10-18T13:58:28;21.10;68.90
254;DHT22;590;48.772;8.846;2022-10-18T14:01:15;21.10;69.60
254;DHT22;590;48.772;8.846;2022-10-18T14:07:01;21.10;71.30
254;DHT22;590;48.772;8.846;2022-10-18T14:09:34;21.20;70.70
254;DHT22;590;48.772;8.846;2022-10-18T14:12:19;21.20;71.40
254;DHT22;590;48.772;8.846;2022-10-18T14:14:54;21.20;70.90
254;DHT22;590;48.772;8.846;2022-10-18T14:17:28;21.20;70.60
254;DHT22;590;48.772;8.846;2022-10-18T14:20:02;21.20;71.70
254;DHT22;590;48.772;8.846;2022-10-18T14:22:35;21.20;71.30
254;DHT22;590;48.772;8.846;2022-10-18T14:25:18;21.20;71.90
254;DHT22;590;48.772;8.846;2022-10-18T14:27:46;21.20;71.60
254;DHT22;590;48.772;8.846;2022-10-18T14:30:21;21.10;72.00
254;DHT22;590;48.772;8.846;2022-10-18T14:32:51;21.10;72.90
254;DHT22;590;48.772;8.846;2022-10-18T14:35:22;21.10;74.20
254;DHT22;590;48.772;8.846;2022-10-18T14:37:58;21.10;74.70
254;DHT22;590;48.772;8.846;2022-10-18T14:40:33;21.00;74.90
254;DHT22;590;48.772;8.846;2022-10-18T14:43:05;21.00;76.00
254;DHT22;590;48.772;8.846;2022-10-18T14:45:40;21.00;77.80
254;DHT22;590;48.772;8.846;2022-10-18T14:48:14;20.90;79.20
254;DHT22;590;48.772;8.846;2022-10-18T14:50:43;21.00;81.30
254;DHT22;590;48.772;8.846;2022-10-18T14:53:15;20.90;81.00
254;DHT22;590;48.772;8.846;2022-10-18T14:55:52;20.90;81.10
254;DHT22;590;48.772;8.846;2022-10-18T14:58:20;20.80;82.80
254;DHT22;590;48.772;8.846;2022-10-18T15:00:50;20.70;84.00
254;DHT22;590;48.772;8.846;2022-10-18T15:03:19;20.70;83.90
254;DHT22;590;48.772;8.846;2022-10-18T15:05:52;20.70;82.30
254;DHT22;590;48.772;8.846;2022-10-18T15:08:21;20.70;82.60
254;DHT22;590;48.772;8.846;2022-10-18T15:10:50;20.60;83.10
254;DHT22;590;48.772;8.846;2022-10-18T15:13:18;20.50;83.40
254;DHT22;590;48.772;8.846;2022-10-18T15:15:47;20.40;84.40
254;DHT22;590;48.772;8.846;2022-10-18T15:18:21;20.30;85.90
254;DHT22;590;48.772;8.846;2022-10-18T15:21:15;20.30;87.30
254;DHT22;590;48.772;8.846;2022-10-18T15:23:47;20.20;88.90
254;DHT22;590;48.772;8.846;2022-10-18T15:26:20;20.10;90.40
254;DHT22;590;48.772;8.846;2022-10-18T15:28:50;20.00;91.70
254;DHT22;590;48.772;8.846;2022-10-18T15:31:24;20.00;92.60
254;DHT22;590;48.772;8.846;2022-10-18T15:34:06;19.90;93.70
254;DHT22;590;48.772;8.846;2022-10-18T15:36:35;19.90;94.40
254;DHT22;590;48.772;8.846;2022-10-18T15:39:13;19.80;94.80
254;DHT22;590;48.772;8.846;2022-10-18T15:41:44;19.80;95.30
254;DHT22;590;48.772;8.846;2022-10-18T15:44:21;19.70;95.90
254;DHT22;590;48.772;8.846;2022-10-18T15:46:52;19.70;96.70
254;DHT22;590;48.772;8.846;2022-10-18T15:49:49;19.60;97.40
254;DHT22;590;48.772;8.846;2022-10-18T15:52:39;19.60;98.00
254;DHT22;590;48.772;8.846;2022-10-18T15:55:44;19.50;98.80
254;DHT22;590;48.772;8.846;2022-10-18T15:58:17;19.50;99.40
254;DHT22;590;48.772;8.846;2022-10-18T16:00:47;19.50;99.90
254;DHT22;590;48.772;8.846;2022-10-18T16:03:17;19.50;99.90
254;DHT22;590;48.772;8.846;2022-10-18T16:05:47;19.50;99.90
254;DHT22;590;48.772;8.846;2022-10-18T16:08:18;19.50;99.90
254;DHT22;590;48.772;8.846;2022-10-18T16:10:46;19.40;99.90
254;DHT22;590;48.772;8.846;2022-10-18T16:13:14;19.40;99.90
254;DHT22;590;48.772;8.846;2022-10-18T16:15:42;19.40;99.90
254;DHT22;590;48.772;8.846;2022-10-18T16:18:13;19.30;99.90
254;DHT22;590;48.772;8.846;2022-10-18T16:20:42;19.30;99.90
254;DHT22;590;48.772;8.846;2022-10-18T16:23:19;19.20;99.90
254;DHT22;590;48.772;8.846;2022-10-18T16:25:48;19.20;99.90
254;DHT22;590;48.772;8.846;2022-10-18T16:28:41;19.20;99.90
254;DHT22;590;48.772;8.846;2022-10-18T16:31:14;19.10;99.90
254;DHT22;590;48.772;8.846;2022-10-18T16:33:43;19.10;99.90
254;DHT22;590;48.772;8.846;2022-10-18T16:36:13;19.10;99.90
254;DHT22;590;48.772;8.846;2022-10-18T16:38:44;19.00;99.90
254;DHT22;590;48.772;8.846;2022-10-18T16:41:12;19.00;99.90
254;DHT22;590;48.772;8.846;2022-10-18T16:43:42;19.00;99.90
254;DHT22;590;48.772;8.846;2022-10-18T16:46:15;18.90;99.90
254;DHT22;590;48.772;8.846;2022-10-18T16:48:44;18.90;99.90
254;DHT22;590;48.772;8.846;2022-10-18T16:51:12;18.80;99.90
254;DHT22;590;48.772;8.846;2022-10-18T16:53:40;18.80;99.90
254;DHT22;590;48.772;8.846;2022-10-18T16:56:13;18.70;99.90
254;DHT22;590;48.772;8.846;2022-10-18T16:58:42;18.70;99.90
254;DHT22;590;48.772;8.846;2022-10-18T17:01:10;18.60;99.90
254;DHT22;590;48.772;8.846;2022-10-18T17:03:39;18.60;99.90
254;DHT22;590;48.772;8.846;2022-10-18T17:06:13;18.50;99.90
254;DHT22;590;48.772;8.846;2022-10-18T17:08:42;18.50;99.90
254;DHT22;590;48.772;8.846;2022-10-18T17:11:13;18.40;99.90
254;DHT22;590;48.772;8.846;2022-10-18T17:13:42;18.30;99.90
254;DHT22;590;48.772;8.846;2022-10-18T17:16:21;18.30;99.90
254;DHT22;590;48.772;8.846;2022-10-18T17:18:50;18.20;99.90
254;DHT22;590;48.772;8.846;2022-10-18T17:21:18;18.10;99.90
254;DHT22;590;48.772;8.846;2022-10-18T17:23:46;18.10;99.90
254;DHT22;590;48.772;8.846;2022-10-18T17:26:16;18.00;99.90